createdAt,value
2023-05-16T00:01:25.032Z,99811.53
2023-05-16T00:03:51.894Z,99812.38
2023-05-16T00:06:18.593Z,99812.38
2023-05-16T00:08:45.249Z,99814.09
2023-05-16T00:11:11.792Z,99797.56
2023-05-16T00:13:38.950Z,99794.97
2023-05-16T00:16:06.509Z,99792.41
2023-05-16T00:18:33.555Z,99786.28
2023-05-16T00:21:02.655Z,99784.53
2023-05-16T00:23:34.479Z,99784.56
2023-05-16T00:26:01.061Z,99787.16
2023-05-16T00:28:32.601Z,99780.16
2023-05-16T00:31:01.442Z,99775.78
2023-05-16T00:33:30.594Z,99776.66
2023-05-16T00:35:58.168Z,99783.56
2023-05-16T00:38:24.767Z,99780.09
2023-05-16T00:40:56.873Z,99787.88
2023-05-16T00:43:23.663Z,99787.91
2023-05-16T00:45:50.990Z,99789.63
2023-05-16T00:48:17.839Z,99795.75
2023-05-16T00:50:47.431Z,99787.91
2023-05-16T00:53:17.164Z,99793.09
2023-05-16T00:55:48.733Z,99787.81
2023-05-16T00:58:17.705Z,99793.91
2023-05-16T01:00:48.810Z,99804.41
2023-05-16T01:03:16.122Z,99807.91
2023-05-16T01:05:45.182Z,99809.66
2023-05-16T01:08:12.641Z,99810.56
2023-05-16T01:10:59.513Z,99807.94
2023-05-16T01:13:44.564Z,99808.75
2023-05-16T01:16:25.082Z,99813.06
2023-05-16T01:19:06.005Z,99819.16
2023-05-16T01:21:53.061Z,99820.09
2023-05-16T01:24:24.572Z,99813.97
2023-05-16T01:26:53.823Z,99798.25
2023-05-16T01:29:20.686Z,99799.19
2023-05-16T01:31:48.049Z,99810.50
2023-05-16T01:34:14.814Z,99814.88
2023-05-16T01:36:44.740Z,99813.13
2023-05-16T01:39:14.190Z,99814.84
2023-05-16T01:42:03.864Z,99812.19
2023-05-16T01:44:49.136Z,99794.75
2023-05-16T01:47:16.749Z,99777.41
2023-05-16T01:49:47.046Z,99771.28
2023-05-16T01:52:15.331Z,99782.63
2023-05-16T01:54:43.627Z,99786.91
2023-05-16T01:57:10.301Z,99780.81
2023-05-16T01:59:37.237Z,99772.09
2023-05-16T02:02:06.610Z,99764.25
2023-05-16T02:04:33.230Z,99758.13
2023-05-16T02:07:00.674Z,99754.66
2023-05-16T02:09:27.645Z,99759.00
2023-05-16T02:11:56.318Z,99755.53
2023-05-16T02:14:27.051Z,99750.28
2023-05-16T02:16:53.804Z,99759.91
2023-05-16T02:19:20.834Z,99776.44
2023-05-16T02:21:47.629Z,99776.41
2023-05-16T02:24:14.292Z,99768.50
2023-05-16T02:26:43.345Z,99766.72
2023-05-16T02:29:10.518Z,99750.19
2023-05-16T02:31:37.342Z,99747.56
2023-05-16T02:34:04.119Z,99740.59
2023-05-16T02:36:30.989Z,99737.94
2023-05-16T02:38:59.988Z,99736.97
2023-05-16T02:41:28.445Z,99722.09
2023-05-16T02:43:55.038Z,99721.19
2023-05-16T02:46:24.161Z,99731.63
2023-05-16T02:48:53.602Z,99740.31
2023-05-16T02:51:20.870Z,99755.16
2023-05-16T02:53:47.557Z,99763.00
2023-05-16T02:56:16.494Z,99754.31
2023-05-16T02:58:45.855Z,99765.66
2023-05-16T03:01:12.549Z,99756.97
2023-05-16T03:03:39.407Z,99752.63
2023-05-16T03:06:13.170Z,99754.41
2023-05-16T03:08:42.183Z,99750.06
2023-05-16T03:11:08.819Z,99739.63
2023-05-16T03:13:37.718Z,99730.91
2023-05-16T03:16:07.260Z,99733.53
2023-05-16T03:18:38.815Z,99726.56
2023-05-16T03:21:05.527Z,99739.63
2023-05-16T03:23:32.250Z,99748.28
2023-05-16T03:26:05.833Z,99746.50
2023-05-16T03:28:32.433Z,99753.47
2023-05-16T03:30:59.193Z,99754.38
2023-05-16T03:33:28.347Z,99754.44
2023-05-16T03:35:55.008Z,99760.53
2023-05-16T03:38:21.801Z,99765.72
2023-05-16T03:40:51.384Z,99763.13
2023-05-16T03:43:18.000Z,99748.28
2023-05-16T03:45:47.048Z,99752.69
2023-05-16T03:48:13.856Z,99753.56
2023-05-16T03:50:43.037Z,99737.03
2023-05-16T03:53:12.229Z,99732.69
2023-05-16T03:55:38.956Z,99721.41
2023-05-16T03:58:06.012Z,99734.47
2023-05-16T04:00:36.741Z,99751.03
2023-05-16T04:03:05.978Z,99742.34
2023-05-16T04:05:32.825Z,99744.13
2023-05-16T04:07:59.470Z,99747.63
2023-05-16T04:10:26.129Z,99745.06
2023-05-16T04:12:55.127Z,99742.47
2023-05-16T04:15:32.371Z,99732.88
2023-05-16T04:17:59.191Z,99738.97
2023-05-16T04:20:28.427Z,99745.06
2023-05-16T04:22:55.249Z,99752.88
2023-05-16T04:25:42.248Z,99771.16
2023-05-16T04:28:13.851Z,99765.97
2023-05-16T04:31:06.542Z,99752.03
2023-05-16T04:34:19.619Z,99752.03
2023-05-16T04:38:17.667Z,99760.75
2023-05-16T04:41:30.574Z,99771.16
2023-05-16T04:44:15.036Z,99765.78
2023-05-16T04:46:44.123Z,99762.31
2023-05-16T04:49:33.615Z,99760.56
2023-05-16T05:00:38.717Z,99774.69
2023-05-16T05:04:08.560Z,99775.56
2023-05-16T05:14:00.971Z,99783.53
2023-05-16T05:16:29.906Z,99774.81
2023-05-16T05:18:59.736Z,99780.06
2023-05-16T05:21:28.757Z,99791.41
2023-05-16T05:23:58.177Z,99797.47
2023-05-16T05:26:26.282Z,99794.88
2023-05-16T05:29:04.713Z,99798.38
2023-05-16T05:31:35.353Z,99780.09
2023-05-16T05:34:02.870Z,99778.31
2023-05-16T05:36:29.593Z,99791.41
2023-05-16T05:38:56.364Z,99790.53
2023-05-16T05:41:29.999Z,99787.06
2023-05-16T05:43:59.345Z,99784.47
2023-05-16T05:46:28.290Z,99781.88
2023-05-16T05:48:55.323Z,99782.78
2023-05-16T05:51:22.043Z,99772.31
2023-05-16T05:53:48.918Z,99781.00
2023-05-16T05:56:15.513Z,99783.66
2023-05-16T05:58:42.493Z,99781.88
2023-05-16T06:01:09.382Z,99792.38
2023-05-16T06:03:36.136Z,99790.63
2023-05-16T06:06:04.116Z,99784.50
2023-05-16T06:08:30.827Z,99782.75
2023-05-16T06:11:00.234Z,99769.63
2023-05-16T06:13:33.107Z,99760.94
2023-05-16T06:16:02.679Z,99761.81
2023-05-16T06:18:29.937Z,99767.03
2023-05-16T06:21:01.237Z,99777.53
2023-05-16T06:23:29.979Z,99768.81
2023-05-16T06:25:59.413Z,99762.72
2023-05-16T06:28:26.025Z,99769.66
2023-05-16T06:30:57.614Z,99770.53
2023-05-16T06:33:26.687Z,99763.56
2023-05-16T06:35:56.595Z,99750.53
2023-05-16T06:38:23.231Z,99752.31
2023-05-16T06:40:49.913Z,99757.53
2023-05-16T06:43:18.901Z,99750.56
2023-05-16T06:45:47.191Z,99756.63
2023-05-16T06:48:18.705Z,99767.94
2023-05-16T06:50:52.168Z,99762.69
2023-05-16T06:53:18.950Z,99764.47
2023-05-16T06:55:47.885Z,99757.53
2023-05-16T06:58:22.669Z,99764.53
2023-05-16T07:00:58.515Z,99760.19
2023-05-16T07:03:27.436Z,99754.09
2023-05-16T07:05:54.554Z,99761.09
2023-05-16T07:08:21.126Z,99761.06
2023-05-16T07:10:47.839Z,99766.34
2023-05-16T07:13:14.513Z,99766.31
2023-05-16T07:15:41.123Z,99764.53
2023-05-16T07:18:07.961Z,99771.53
2023-05-16T07:20:34.736Z,99770.69
2023-05-16T07:23:02.103Z,99770.69
2023-05-16T07:25:29.189Z,99768.09
2023-05-16T07:27:58.904Z,99765.47
2023-05-16T07:30:25.791Z,99751.50
2023-05-16T07:32:54.805Z,99745.41
2023-05-16T07:35:21.478Z,99744.56
2023-05-16T07:37:50.670Z,99747.19
2023-05-16T07:40:18.687Z,99745.41
2023-05-16T07:42:47.745Z,99758.50
2023-05-16T07:45:14.837Z,99761.09
2023-05-16T07:47:42.069Z,99762.84
2023-05-16T07:50:11.242Z,99759.31
2023-05-16T07:52:37.918Z,99755.81
2023-05-16T07:55:07.278Z,99749.72
2023-05-16T07:57:33.971Z,99749.72
2023-05-16T08:00:01.046Z,99743.59
2023-05-16T08:02:33.463Z,99744.47
2023-05-16T08:05:03.359Z,99740.09
2023-05-16T08:07:30.568Z,99745.25
2023-05-16T08:09:57.196Z,99743.53
2023-05-16T08:12:24.337Z,99740.03
2023-05-16T08:14:56.017Z,99746.13
2023-05-16T08:17:25.082Z,99745.28
2023-05-16T08:19:51.687Z,99754.91
2023-05-16T08:22:18.494Z,99750.50
2023-05-16T08:24:47.518Z,99760.06
2023-05-16T08:27:16.697Z,99755.66
2023-05-16T08:29:46.309Z,99760.75
2023-05-16T08:32:13.172Z,99761.66
2023-05-16T08:34:39.861Z,99761.72
2023-05-16T08:37:06.610Z,99752.91
2023-05-16T08:39:35.772Z,99755.53
2023-05-16T08:42:02.568Z,99746.75
2023-05-16T08:44:29.552Z,99734.53
2023-05-16T08:46:58.884Z,99723.25
2023-05-16T08:49:28.241Z,99723.31
2023-05-16T08:51:59.721Z,99725.94
2023-05-16T08:54:30.024Z,99730.28
2023-05-16T08:57:03.048Z,99728.56
2023-05-16T08:59:29.725Z,99736.31
2023-05-16T09:01:57.053Z,99733.72
2023-05-16T09:04:28.037Z,99731.19
2023-05-16T09:06:57.344Z,99731.22
2023-05-16T09:09:29.426Z,99724.34
2023-05-16T09:11:58.645Z,99718.25
2023-05-16T09:14:25.844Z,99721.75
2023-05-16T09:17:12.653Z,99721.69
2023-05-16T09:19:40.373Z,99726.03
2023-05-16T09:22:11.633Z,99723.41
2023-05-16T09:24:41.593Z,99720.78
2023-05-16T09:27:12.144Z,99719.03
2023-05-16T09:29:44.678Z,99725.09
2023-05-16T09:32:12.943Z,99726.75
2023-05-16T09:34:49.209Z,99723.28
2023-05-16T09:37:18.123Z,99726.91
2023-05-16T09:39:48.411Z,99726.94
2023-05-16T09:42:24.250Z,99720.00
2023-05-16T09:44:52.395Z,99715.66
2023-05-16T09:47:22.314Z,99719.16
2023-05-16T09:49:54.454Z,99724.38
2023-05-16T09:52:25.685Z,99725.25
2023-05-16T09:55:05.327Z,99717.41
2023-05-16T09:57:44.299Z,99726.16
2023-05-16T10:00:11.988Z,99724.38
2023-05-16T10:02:40.557Z,99709.53
2023-05-16T10:05:09.854Z,99711.28
2023-05-16T10:07:46.866Z,99720.03
2023-05-16T10:10:15.994Z,99720.91
2023-05-16T10:12:42.651Z,99720.91
2023-05-16T10:15:09.686Z,99718.31
2023-05-16T10:17:37.115Z,99712.22
2023-05-16T10:20:07.280Z,99707.84
2023-05-16T10:22:37.322Z,99714.88
2023-05-16T10:25:33.524Z,99712.22
2023-05-16T10:28:00.320Z,99701.78
2023-05-16T10:30:30.311Z,99704.38
2023-05-16T10:33:01.182Z,99691.28
2023-05-16T10:35:28.230Z,99694.75
2023-05-16T10:37:55.285Z,99696.47
2023-05-16T10:40:21.929Z,99686.03
2023-05-16T10:42:59.530Z,99681.69
2023-05-16T10:45:26.436Z,99682.56
2023-05-16T10:47:56.320Z,99686.06
2023-05-16T10:50:36.740Z,99686.94
2023-05-16T10:53:18.811Z,99678.19
2023-05-16T10:56:01.354Z,99672.97
2023-05-16T10:58:31.251Z,99659.91
2023-05-16T11:01:17.036Z,99658.16
2023-05-16T11:04:01.958Z,99652.91
2023-05-16T11:06:35.396Z,99643.34
2023-05-16T11:09:10.169Z,99638.09
2023-05-16T11:11:53.303Z,99638.13
2023-05-16T11:14:29.603Z,99638.13
2023-05-16T11:17:10.396Z,99632.00
2023-05-16T11:19:47.039Z,99622.41
2023-05-16T11:22:19.884Z,99624.19
2023-05-16T11:24:51.296Z,99612.81
2023-05-16T11:27:24.148Z,99595.34
2023-05-16T11:30:02.808Z,99591.81
2023-05-16T11:32:35.304Z,99591.75
2023-05-16T11:35:11.563Z,99594.31
2023-05-16T11:37:42.209Z,99599.50
2023-05-16T11:40:12.314Z,99602.16
2023-05-16T11:42:43.027Z,99612.63
2023-05-16T11:45:09.725Z,99605.63
2023-05-16T11:47:37.604Z,99605.59
2023-05-16T11:50:10.349Z,99600.34
2023-05-16T11:52:40.019Z,99592.50
2023-05-16T11:55:08.114Z,99592.50
2023-05-16T11:57:34.804Z,99590.72
2023-05-16T12:00:09.263Z,99590.72
2023-05-16T12:02:38.620Z,99581.94
2023-05-16T12:05:10.391Z,99577.50
2023-05-16T12:07:37.551Z,99581.91
2023-05-16T12:10:10.103Z,99574.78
2023-05-16T12:12:37.081Z,99571.31
2023-05-16T12:15:07.918Z,99565.13
2023-05-16T12:17:37.961Z,99565.13
2023-05-16T12:20:11.668Z,99571.13
2023-05-16T12:22:41.965Z,99565.81
2023-05-16T12:25:28.009Z,99571.94
2023-05-16T12:27:55.423Z,99575.41
2023-05-16T12:30:22.988Z,99577.06
2023-05-16T12:33:09.959Z,99577.06
2023-05-16T12:35:38.361Z,99585.78
2023-05-16T12:38:08.973Z,99583.19
2023-05-16T12:40:39.917Z,99589.38
2023-05-16T12:43:27.917Z,99578.88
2023-05-16T12:45:58.652Z,99564.09
2023-05-16T12:48:37.017Z,99563.19
2023-05-16T12:51:16.560Z,99570.13
2023-05-16T12:54:08.814Z,99579.72
2023-05-16T12:56:42.038Z,99578.88
2023-05-16T12:59:12.490Z,99581.50
2023-05-16T13:01:45.897Z,99570.09
2023-05-16T13:04:19.164Z,99565.69
2023-05-16T13:06:58.408Z,99570.06
2023-05-16T13:09:31.411Z,99570.09
2023-05-16T13:12:03.001Z,99560.38
2023-05-16T13:14:32.745Z,99554.19
2023-05-16T13:17:02.380Z,99548.97
2023-05-16T13:19:31.855Z,99545.47
2023-05-16T13:21:58.770Z,99547.22
2023-05-16T13:24:25.448Z,99535.00
2023-05-16T13:26:56.785Z,99531.56
2023-05-16T13:29:23.497Z,99522.00
2023-05-16T13:31:50.821Z,99519.44
2023-05-16T13:34:17.564Z,99520.38
2023-05-16T13:36:54.568Z,99512.53
2023-05-16T13:39:22.400Z,99504.72
2023-05-16T13:41:49.473Z,99493.31
2023-05-16T13:44:16.759Z,99485.38
2023-05-16T13:46:43.572Z,99478.28
2023-05-16T13:49:15.549Z,99482.53
2023-05-16T13:51:44.626Z,99483.19
2023-05-16T13:54:13.766Z,99494.50
2023-05-16T13:56:40.501Z,99491.84
2023-05-16T13:59:07.885Z,99485.56
2023-05-16T14:01:41.182Z,99480.91
2023-05-16T14:04:12.740Z,99481.47
2023-05-16T14:06:39.419Z,99476.25
2023-05-16T14:09:06.412Z,99463.84
2023-05-16T14:11:33.075Z,99470.59
2023-05-16T14:14:02.148Z,99468.66
2023-05-16T14:16:31.332Z,99462.44
2023-05-16T14:18:58.432Z,99467.47
2023-05-16T14:21:25.085Z,99469.13
2023-05-16T14:23:54.212Z,99468.31
2023-05-16T14:26:25.556Z,99467.47
2023-05-16T14:28:59.670Z,99469.31
2023-05-16T14:31:29.935Z,99474.59
2023-05-16T14:33:57.094Z,99473.97
2023-05-16T14:36:23.934Z,99475.00
2023-05-16T14:38:50.586Z,99485.66
2023-05-16T14:41:17.315Z,99490.13
2023-05-16T14:43:44.802Z,99495.44
2023-05-16T14:46:17.274Z,99499.00
2023-05-16T14:48:43.984Z,99491.22
2023-05-16T14:51:13.694Z,99488.59
2023-05-16T14:53:40.942Z,99486.97
2023-05-16T14:56:07.658Z,99492.25
2023-05-16T14:58:37.001Z,99489.72
2023-05-16T15:01:04.282Z,99493.28
2023-05-16T15:03:43.283Z,99488.22
2023-05-16T15:06:20.161Z,99481.25
2023-05-16T15:08:51.906Z,99489.06
2023-05-16T15:11:18.656Z,99484.69
2023-05-16T15:13:47.732Z,99482.03
2023-05-16T15:16:14.459Z,99489.22
2023-05-16T15:18:41.371Z,99485.81
2023-05-16T15:21:09.100Z,99485.00
2023-05-16T15:23:36.617Z,99492.84
2023-05-16T15:26:03.724Z,99492.88
2023-05-16T15:28:30.380Z,99495.53
2023-05-16T15:30:59.675Z,99484.19
2023-05-16T15:33:26.366Z,99491.13
2023-05-16T15:35:53.076Z,99486.84
2023-05-16T15:38:19.965Z,99482.53
2023-05-16T15:41:09.701Z,99477.38
2023-05-16T15:43:44.119Z,99485.28
2023-05-16T15:46:13.445Z,99475.75
2023-05-16T15:48:44.738Z,99465.25
2023-05-16T15:51:15.743Z,99468.81
2023-05-16T15:53:45.178Z,99461.88
2023-05-16T15:56:11.923Z,99457.50
2023-05-16T15:58:41.733Z,99452.25
2023-05-16T16:01:08.498Z,99458.50
2023-05-16T16:03:38.306Z,99442.88
2023-05-16T16:06:05.210Z,99435.88
2023-05-16T16:08:34.371Z,99430.69
2023-05-16T16:11:01.327Z,99441.31
2023-05-16T16:13:31.072Z,99446.56
2023-05-16T16:16:00.015Z,99444.88
2023-05-16T16:18:29.101Z,99447.53
2023-05-16T16:20:56.340Z,99450.13
2023-05-16T16:23:22.958Z,99459.69
2023-05-16T16:25:49.580Z,99469.28
2023-05-16T16:28:16.600Z,99467.50
2023-05-16T16:30:47.459Z,99467.44
2023-05-16T16:33:21.398Z,99464.78
2023-05-16T16:35:48.486Z,99477.00
2023-05-16T16:38:17.520Z,99482.25
2023-05-16T16:40:46.629Z,99475.28
2023-05-16T16:43:19.513Z,99467.38
2023-05-16T16:45:48.088Z,99463.06
2023-05-16T16:48:17.220Z,99463.06
2023-05-16T16:50:46.260Z,99461.28
2023-05-16T16:53:15.653Z,99453.41
2023-05-16T16:55:44.819Z,99456.91
2023-05-16T16:58:14.268Z,99453.44
2023-05-16T17:00:46.737Z,99456.09
2023-05-16T17:03:13.549Z,99457.06
2023-05-16T17:05:45.589Z,99450.06
2023-05-16T17:08:12.218Z,99453.59
2023-05-16T17:10:39.440Z,99449.25
2023-05-16T17:13:10.455Z,99451.91
2023-05-16T17:15:37.869Z,99464.22
2023-05-16T17:18:07.681Z,99470.34
2023-05-16T17:20:37.428Z,99459.09
2023-05-16T17:23:04.220Z,99455.63
2023-05-16T17:25:35.915Z,99448.63
2023-05-16T17:28:10.896Z,99448.63
2023-05-16T17:30:40.499Z,99455.69
2023-05-16T17:33:08.244Z,99455.69
2023-05-16T17:35:35.890Z,99456.53
2023-05-16T17:38:05.415Z,99463.50
2023-05-16T17:40:34.519Z,99455.69
2023-05-16T17:43:03.232Z,99453.94
2023-05-16T17:45:31.905Z,99462.66
2023-05-16T17:48:01.170Z,99470.56
2023-05-16T17:50:29.158Z,99464.47
2023-05-16T17:52:58.906Z,99465.34
2023-05-16T17:55:26.176Z,99463.59
2023-05-16T17:57:53.575Z,99459.25
2023-05-16T18:00:22.866Z,99460.13
2023-05-16T18:02:52.729Z,99461.84
2023-05-16T18:05:19.416Z,99457.47
2023-05-16T18:07:46.598Z,99469.72
2023-05-16T18:10:16.551Z,99462.75
2023-05-16T18:12:43.807Z,99465.38
2023-05-16T18:15:21.017Z,99457.50
2023-05-16T18:17:49.710Z,99449.63
2023-05-16T18:20:19.575Z,99450.53
2023-05-16T18:22:46.445Z,99451.38
2023-05-16T18:25:14.039Z,99454.88
2023-05-16T18:27:42.987Z,99461.81
2023-05-16T18:30:10.118Z,99455.72
2023-05-16T18:32:39.307Z,99468.81
2023-05-16T18:35:10.399Z,99465.31
2023-05-16T18:37:44.222Z,99467.88
2023-05-16T18:40:11.548Z,99466.16
2023-05-16T18:42:40.722Z,99460.06
2023-05-16T18:45:15.060Z,99472.28
2023-05-16T18:47:49.311Z,99463.56
2023-05-16T18:50:16.342Z,99460.09
2023-05-16T18:52:43.143Z,99460.09
2023-05-16T18:55:09.995Z,99452.22
2023-05-16T18:57:36.666Z,99449.63
2023-05-16T19:00:10.523Z,99462.72
2023-05-16T19:02:42.135Z,99459.19
2023-05-16T19:05:10.674Z,99421.75
2023-05-16T19:07:39.720Z,99459.19
2023-05-16T19:10:06.688Z,99461.81
2023-05-16T19:12:33.309Z,99465.31
2023-05-16T19:15:02.223Z,99469.72
2023-05-16T19:17:30.564Z,99473.19
2023-05-16T19:19:58.442Z,99467.94
2023-05-16T19:22:29.992Z,99480.19
2023-05-16T19:24:58.938Z,99474.88
2023-05-16T19:27:35.837Z,99477.53
2023-05-16T19:30:04.041Z,99469.66
2023-05-16T19:32:30.668Z,99474.06
2023-05-16T19:34:57.684Z,99473.19
2023-05-16T19:37:24.490Z,99474.97
2023-05-16T19:39:54.396Z,99483.66
2023-05-16T19:42:21.343Z,99476.69
2023-05-16T19:44:48.221Z,99476.69
2023-05-16T19:47:14.856Z,99471.47
2023-05-16T19:49:47.616Z,99477.59
2023-05-16T19:52:19.349Z,99475.84
2023-05-16T19:54:51.321Z,99465.41
2023-05-16T19:57:18.062Z,99462.75
2023-05-16T19:59:49.860Z,99463.63
2023-05-16T20:02:21.207Z,99463.63
2023-05-16T20:04:51.197Z,99461.94
2023-05-16T20:07:20.664Z,99460.22
2023-05-16T20:09:47.382Z,99462.84
2023-05-16T20:12:16.616Z,99459.34
2023-05-16T20:15:02.640Z,99462.84
2023-05-16T20:17:31.640Z,99455.03
2023-05-16T20:20:03.199Z,99467.25
2023-05-16T20:22:30.105Z,99467.22
2023-05-16T20:24:56.897Z,99462.88
2023-05-16T20:27:29.750Z,99473.31
2023-05-16T20:29:58.620Z,99469.00
2023-05-16T20:32:31.119Z,99465.47
2023-05-16T20:34:57.912Z,99458.47
2023-05-16T20:37:29.377Z,99457.59
2023-05-16T20:39:56.158Z,99459.34
2023-05-16T20:42:22.853Z,99455.84
2023-05-16T20:44:52.385Z,99451.50
2023-05-16T20:47:25.064Z,99456.72
2023-05-16T20:49:52.820Z,99451.50
2023-05-16T20:52:21.909Z,99455.81
2023-05-16T20:54:48.871Z,99454.06
2023-05-16T20:57:19.563Z,99455.84
2023-05-16T20:59:50.517Z,99458.47
2023-05-16T21:02:17.248Z,99450.63
2023-05-16T21:04:48.886Z,99443.66
2023-05-16T21:07:15.750Z,99446.25
2023-05-16T21:09:44.850Z,99441.00
2023-05-16T21:12:11.623Z,99443.63
2023-05-16T21:14:38.370Z,99451.44
2023-05-16T21:17:08.276Z,99461.97
2023-05-16T21:19:39.643Z,99457.63
2023-05-16T21:22:06.328Z,99451.53
2023-05-16T21:24:35.790Z,99450.66
2023-05-16T21:27:07.101Z,99461.97
2023-05-16T21:29:36.543Z,99464.56
2023-05-16T21:32:03.960Z,99461.06
2023-05-16T21:34:38.026Z,99459.34
2023-05-16T21:37:05.915Z,99456.72
2023-05-16T21:39:35.524Z,99457.56
2023-05-16T21:42:05.287Z,99460.19
2023-05-16T21:44:31.872Z,99444.47
2023-05-16T21:46:58.556Z,99440.97
2023-05-16T21:49:27.950Z,99439.22
2023-05-16T21:51:59.484Z,99440.09
2023-05-16T21:54:28.074Z,99434.84
2023-05-16T21:56:57.330Z,99432.22
2023-05-16T21:59:26.484Z,99434.84
2023-05-16T22:01:53.034Z,99441.84
2023-05-16T22:04:22.256Z,99438.38
2023-05-16T22:06:48.946Z,99434.88
2023-05-16T22:09:18.442Z,99433.16
2023-05-16T22:11:45.387Z,99426.22
2023-05-16T22:14:14.782Z,99425.31
2023-05-16T22:16:44.037Z,99419.22
2023-05-16T22:19:13.338Z,99429.69
2023-05-16T22:21:42.935Z,99432.28
2023-05-16T22:24:09.557Z,99441.91
2023-05-16T22:26:36.391Z,99448.91
2023-05-16T22:29:05.302Z,99436.72
2023-05-16T22:31:34.288Z,99442.84
2023-05-16T22:34:01.786Z,99439.38
2023-05-16T22:36:28.705Z,99441.06
2023-05-16T22:38:55.850Z,99434.97
2023-05-16T22:41:24.923Z,99427.13
2023-05-16T22:43:54.679Z,99428.84
2023-05-16T22:46:26.174Z,99434.97
2023-05-16T22:48:57.832Z,99436.72
2023-05-16T22:51:26.607Z,99432.34
2023-05-16T22:53:53.210Z,99434.97
2023-05-16T22:56:19.903Z,99431.47
2023-05-16T22:58:48.903Z,99434.03
2023-05-16T23:01:20.486Z,99434.91
2023-05-16T23:03:49.859Z,99436.63
2023-05-16T23:06:19.552Z,99437.50
2023-05-16T23:08:53.971Z,99436.66
2023-05-16T23:11:24.031Z,99430.53
2023-05-16T23:13:50.770Z,99433.19
2023-05-16T23:16:25.738Z,99439.28
2023-05-16T23:19:42.077Z,99448.88
2023-05-16T23:22:12.151Z,99444.53
2023-05-16T23:24:42.310Z,99450.63
2023-05-16T23:27:09.302Z,99449.78
2023-05-16T23:34:22.849Z,99453.25
2023-05-16T23:36:50.007Z,99447.16
2023-05-16T23:39:17.468Z,99450.66
2023-05-16T23:41:44.504Z,99453.25
2023-05-16T23:44:17.391Z,99448.91
2023-05-16T23:46:44.509Z,99447.16
2023-05-16T23:49:11.540Z,99454.13
2023-05-16T23:51:55.573Z,99455.03
2023-05-16T23:54:26.820Z,99449.78
2023-05-16T23:56:54.181Z,99448.03
2023-05-16T23:59:21.525Z,99442.81
